Time;durP1;ratioP1;P1;durP2;ratioP2;P2;SDS_P1;SDS_P2;PMS_P1;PMS_P2;Temp;Humidity;BMP_temperature;BMP_pressure;BME280_temperature;BME280_humidity;BME280_pressure;Samples;Min_cycle;Max_cycle;Signal;HPM_P1;HPM_P2
2023/07/08 00:00:23;;;;;;;6.15;4.07;;;16.60;99.90;;;;;;5092398;28;20040;-70
2023/07/08 00:02:49;;;;;;;6.72;4.53;;;16.60;99.90;;;;;;5143670;27;20036;-70
2023/07/08 00:05:17;;;;;;;5.57;4.20;;;16.60;99.90;;;;;;5143788;27;20044;-71
2023/07/08 00:07:44;;;;;;;9.00;4.45;;;16.60;99.90;;;;;;5143586;27;20060;-70
2023/07/08 00:10:18;;;;;;;6.40;4.47;;;16.50;99.90;;;;;;5075504;28;20040;-70
2023/07/08 00:12:46;;;;;;;8.00;4.72;;;16.50;99.90;;;;;;5143698;27;20047;-70
2023/07/08 00:15:12;;;;;;;8.88;4.70;;;16.50;99.90;;;;;;5143608;27;20073;-70
2023/07/08 00:17:37;;;;;;;8.57;4.78;;;16.50;99.90;;;;;;5143483;27;20039;-70
2023/07/08 00:20:17;;;;;;;5.70;4.13;;;16.50;99.90;;;;;;5075527;28;20050;-70
2023/07/08 00:22:46;;;;;;;6.13;4.22;;;16.50;99.90;;;;;;5143706;27;20126;-70
2023/07/08 00:25:14;;;;;;;7.43;4.40;;;16.40;99.90;;;;;;5093089;28;20089;-70
2023/07/08 00:27:41;;;;;;;5.60;4.47;;;16.40;99.90;;;;;;5143516;27;20067;-70
2023/07/08 00:30:20;;;;;;;9.20;4.55;;;16.40;99.90;;;;;;5143264;27;20045;-70
2023/07/08 00:32:46;;;;;;;6.13;4.35;;;16.40;99.90;;;;;;5108902;28;20053;-70
2023/07/08 00:35:12;;;;;;;6.25;4.18;;;16.30;99.90;;;;;;5143607;27;20043;-70
2023/07/08 00:37:38;;;;;;;6.40;4.07;;;16.30;99.90;;;;;;5143370;27;20516;-70
2023/07/08 00:40:31;;;;;;;7.30;4.88;;;16.30;99.90;;;;;;5143415;27;20069;-70
2023/07/08 00:43:01;;;;;;;5.85;4.72;;;16.30;99.90;;;;;;5123591;28;20409;-70
2023/07/08 00:45:48;;;;;;;5.85;4.32;;;16.30;99.90;;;;;;5092267;28;20054;-70
2023/07/08 00:48:28;;;;;;;6.30;4.85;;;16.30;99.90;;;;;;5091759;28;20493;-70
2023/07/08 00:50:54;;;;;;;6.45;4.75;;;16.30;99.90;;;;;;5143432;27;20101;-70
2023/07/08 00:53:27;;;;;;;8.82;4.13;;;16.20;99.90;;;;;;5144974;27;20378;-70
2023/07/08 00:55:57;;;;;;;5.97;4.63;;;16.20;99.90;;;;;;5146944;27;20125;-70
2023/07/08 00:58:26;;;;;;;9.73;4.40;;;16.20;99.90;;;;;;5146419;27;20130;-70
2023/07/08 01:00:56;;;;;;;8.32;4.80;;;16.20;99.90;;;;;;5146944;27;20047;-70
2023/07/08 01:03:24;;;;;;;7.13;4.72;;;16.10;99.90;;;;;;5112431;28;20045;-70
2023/07/08 01:05:51;;;;;;;6.43;4.97;;;16.10;99.90;;;;;;5147294;27;20079;-70
2023/07/08 01:08:17;;;;;;;5.57;4.30;;;16.10;99.90;;;;;;5146502;27;20416;-71
2023/07/08 01:10:51;;;;;;;8.40;5.03;;;16.10;99.90;;;;;;5146790;27;20050;-71
2023/07/08 01:13:18;;;;;;;8.40;5.13;;;16.10;99.90;;;;;;5113402;28;20085;-70
2023/07/08 01:15:46;;;;;;;7.70;5.18;;;16.00;99.90;;;;;;5095251;28;20039;-70
2023/07/08 01:18:16;;;;;;;9.35;5.53;;;16.00;99.90;;;;;;5095109;28;20544;-71
2023/07/08 01:20:43;;;;;;;7.85;5.05;;;16.00;99.90;;;;;;5146849;27;20171;-71
2023/07/08 01:23:11;;;;;;;7.75;4.70;;;15.90;99.90;;;;;;5146363;27;20047;-71
2023/07/08 01:25:37;;;;;;;7.88;5.00;;;15.90;99.90;;;;;;5146527;27;20055;-70
2023/07/08 01:28:04;;;;;;;7.78;5.00;;;15.90;99.90;;;;;;5146034;27;20108;-71
2023/07/08 01:30:30;;;;;;;8.98;5.10;;;15.90;99.90;;;;;;5111942;28;20047;-70
2023/07/08 01:33:01;;;;;;;6.50;5.10;;;15.80;99.90;;;;;;5094904;28;20032;-70
2023/07/08 01:35:27;;;;;;;6.53;4.97;;;15.80;99.90;;;;;;5112964;28;20118;-70
2023/07/08 01:37:57;;;;;;;7.13;4.72;;;15.70;99.90;;;;;;5094773;28;20540;-70
2023/07/08 01:40:25;;;;;;;6.68;4.95;;;15.70;99.90;;;;;;5145905;27;20046;-70
2023/07/08 01:42:51;;;;;;;10.57;5.47;;;15.70;99.90;;;;;;5146248;27;20489;-70
2023/07/08 01:45:20;;;;;;;7.20;5.20;;;15.70;99.90;;;;;;5111815;28;20096;-70
2023/07/08 01:47:53;;;;;;;10.20;5.13;;;15.70;99.90;;;;;;5145978;27;20529;-70
2023/07/08 01:50:21;;;;;;;6.65;4.57;;;15.70;99.90;;;;;;5145791;27;20100;-70
2023/07/08 01:52:49;;;;;;;6.43;5.13;;;15.70;99.90;;;;;;5111397;28;20071;-70
2023/07/08 01:55:15;;;;;;;7.32;5.50;;;15.70;99.90;;;;;;5145617;27;20047;-70
2023/07/08 01:57:40;;;;;;;7.60;5.07;;;15.70;99.90;;;;;;5146013;27;20065;-70
2023/07/08 02:00:07;;;;;;;7.97;5.07;;;15.60;99.90;;;;;;5093817;28;20378;-70
2023/07/08 02:02:32;;;;;;;8.45;4.95;;;15.60;99.90;;;;;;5111340;28;20528;-70
2023/07/08 02:04:58;;;;;;;8.90;6.15;;;15.60;99.90;;;;;;5127277;27;20075;-70
2023/07/08 02:07:24;;;;;;;6.85;5.10;;;15.60;99.90;;;;;;5112411;27;20043;-70
2023/07/08 02:09:49;;;;;;;6.63;5.40;;;15.60;99.90;;;;;;5094046;28;20533;-70
2023/07/08 02:12:15;;;;;;;7.18;5.28;;;15.50;99.90;;;;;;5145862;27;20047;-70
2023/07/08 02:14:41;;;;;;;8.32;5.50;;;15.50;99.90;;;;;;5145288;27;20541;-70
2023/07/08 02:17:06;;;;;;;10.40;5.60;;;15.50;99.90;;;;;;5112353;28;20035;-70
2023/07/08 02:19:32;;;;;;;7.50;5.00;;;15.50;99.90;;;;;;5145045;27;20550;-70
2023/07/08 02:21:58;;;;;;;7.07;5.40;;;15.50;99.90;;;;;;5112025;28;20058;-70
2023/07/08 02:24:23;;;;;;;7.88;5.05;;;15.40;99.90;;;;;;5145417;27;20093;-70
2023/07/08 02:26:49;;;;;;;8.68;4.93;;;15.50;99.90;;;;;;5145423;27;20039;-70
2023/07/08 02:29:15;;;;;;;8.63;5.43;;;15.40;99.90;;;;;;5145082;27;20565;-70
2023/07/08 02:31:41;;;;;;;7.18;5.30;;;15.40;99.90;;;;;;5112133;28;20545;-70
2023/07/08 02:34:06;;;;;;;8.07;5.40;;;15.40;99.90;;;;;;5093979;28;20051;-70
2023/07/08 02:36:34;;;;;;;9.55;5.38;;;15.40;99.90;;;;;;5076589;28;20415;-70
2023/07/08 02:38:59;;;;;;;7.43;5.40;;;15.40;99.90;;;;;;5144990;27;20043;-70
2023/07/08 02:41:25;;;;;;;8.43;5.72;;;15.40;99.90;;;;;;5145019;27;20097;-70
2023/07/08 02:43:51;;;;;;;7.90;5.40;;;15.40;99.90;;;;;;5127632;27;20378;-70
2023/07/08 02:46:17;;;;;;;8.68;5.85;;;15.40;99.90;;;;;;5144776;27;20104;-70
2023/07/08 02:48:42;;;;;;;11.38;6.20;;;15.40;99.90;;;;;;5144913;27;20068;-70
2023/07/08 02:51:11;;;;;;;8.48;6.18;;;15.40;99.90;;;;;;5127484;27;20682;-70
2023/07/08 02:53:36;;;;;;;9.32;5.90;;;15.40;99.90;;;;;;5144667;27;20042;-70
2023/07/08 02:56:02;;;;;;;8.77;5.88;;;15.40;99.90;;;;;;5144217;27;20055;-70
2023/07/08 02:58:29;;;;;;;13.63;5.70;;;15.30;99.90;;;;;;5092917;28;20043;-71
2023/07/08 03:00:58;;;;;;;7.40;5.65;;;15.30;99.90;;;;;;5093037;28;20099;-70
2023/07/08 03:03:24;;;;;;;9.45;6.18;;;15.30;99.90;;;;;;5093355;28;20043;-70
2023/07/08 03:06:01;;;;;;;11.38;6.18;;;15.30;99.90;;;;;;5144176;27;20404;-70
2023/07/08 03:08:27;;;;;;;9.60;6.35;;;15.30;99.90;;;;;;5094096;28;20046;-70
2023/07/08 03:10:58;;;;;;;8.60;5.80;;;15.20;99.90;;;;;;5144015;27;20180;-70
2023/07/08 03:13:26;;;;;;;7.60;5.43;;;15.20;99.90;;;;;;5092790;28;20078;-70
2023/07/08 03:15:52;;;;;;;7.07;5.90;;;15.20;99.90;;;;;;5143636;27;20404;-70
2023/07/08 03:18:17;;;;;;;12.07;6.57;;;15.20;99.90;;;;;;5144044;27;20043;-71
2023/07/08 03:20:44;;;;;;;8.68;5.60;;;15.20;99.90;;;;;;5143833;27;20043;-70
2023/07/08 03:23:11;;;;;;;12.82;6.53;;;15.20;99.90;;;;;;5144313;27;20438;-70
2023/07/08 03:25:37;;;;;;;8.20;5.82;;;15.20;99.90;;;;;;5092494;28;20095;-70
2023/07/08 03:28:06;;;;;;;8.07;6.00;;;15.20;99.90;;;;;;5143879;27;20047;-70
2023/07/08 03:30:33;;;;;;;8.52;5.47;;;15.20;99.90;;;;;;5075975;28;20047;-70
2023/07/08 03:32:59;;;;;;;7.97;5.38;;;15.10;99.90;;;;;;5143781;27;20055;-71
2023/07/08 03:35:25;;;;;;;8.50;6.00;;;15.00;99.90;;;;;;5144023;27;20048;-70
2023/07/08 03:37:51;;;;;;;9.75;5.90;;;15.00;99.90;;;;;;5143998;27;20058;-70
2023/07/08 03:40:17;;;;;;;9.82;6.20;;;15.00;99.90;;;;;;5091962;28;20118;-70
2023/07/08 03:42:43;;;;;;;12.00;5.95;;;15.00;99.90;;;;;;5092430;28;20139;-70
2023/07/08 03:45:09;;;;;;;7.88;6.63;;;15.00;99.90;;;;;;5143997;27;20056;-70
2023/07/08 03:47:35;;;;;;;7.82;5.68;;;15.00;99.90;;;;;;5092550;28;20083;-70
2023/07/08 03:50:01;;;;;;;10.48;6.55;;;15.00;99.90;;;;;;5143428;27;20473;-70
2023/07/08 03:52:27;;;;;;;9.18;6.22;;;15.00;99.90;;;;;;5143412;27;20048;-70
2023/07/08 03:54:52;;;;;;;10.07;6.40;;;15.00;99.90;;;;;;5092230;28;20052;-70
2023/07/08 03:57:18;;;;;;;10.57;6.25;;;15.00;99.90;;;;;;5108938;28;20122;-70
2023/07/08 03:59:44;;;;;;;9.93;6.15;;;15.00;99.90;;;;;;5143208;27;20118;-70
2023/07/08 04:02:13;;;;;;;7.50;5.70;;;15.00;99.90;;;;;;5143746;27;20051;-70
2023/07/08 04:04:39;;;;;;;7.80;5.90;;;15.00;99.90;;;;;;5143761;27;20032;-70
2023/07/08 04:07:05;;;;;;;8.93;6.13;;;15.10;99.90;;;;;;5092173;28;20040;-70
2023/07/08 04:09:31;;;;;;;8.90;6.35;;;15.10;99.90;;;;;;5110616;28;20082;-71
2023/07/08 04:11:58;;;;;;;10.52;6.40;;;15.10;99.90;;;;;;5143719;27;20071;-70
2023/07/08 04:14:24;;;;;;;9.45;6.72;;;15.00;99.90;;;;;;5092292;28;20053;-70
2023/07/08 04:16:51;;;;;;;10.77;6.55;;;15.00;99.90;;;;;;5143438;27;20365;-70
2023/07/08 04:19:17;;;;;;;7.00;5.78;;;15.10;99.90;;;;;;5092123;28;20044;-70
2023/07/08 04:21:44;;;;;;;10.18;6.40;;;15.10;99.90;;;;;;5143374;27;20040;-70
2023/07/08 04:24:12;;;;;;;8.60;6.28;;;15.10;99.90;;;;;;5143886;27;20039;-70
2023/07/08 04:26:39;;;;;;;9.20;6.05;;;15.10;99.90;;;;;;5092066;28;20043;-70
2023/07/08 04:29:13;;;;;;;8.10;5.60;;;15.10;99.90;;;;;;5146118;27;20043;-70
2023/07/08 04:31:39;;;;;;;8.38;6.50;;;15.10;99.90;;;;;;5113206;28;20122;-70
2023/07/08 04:34:06;;;;;;;9.98;6.03;;;15.10;99.90;;;;;;5079397;28;20552;-71
2023/07/08 04:36:32;;;;;;;7.60;5.55;;;15.10;99.90;;;;;;5147389;27;20560;-70
2023/07/08 04:38:58;;;;;;;9.90;5.75;;;15.10;99.90;;;;;;5147194;27;20047;-70
2023/07/08 04:41:27;;;;;;;7.55;5.53;;;15.10;99.90;;;;;;5114120;28;20046;-70
2023/07/08 04:43:53;;;;;;;7.50;5.80;;;15.20;99.90;;;;;;5147439;27;20053;-70
2023/07/08 04:46:27;;;;;;;10.55;7.13;;;15.20;99.90;;;;;;5147208;27;20425;-70
2023/07/08 04:48:53;;;;;;;11.50;6.35;;;15.20;99.90;;;;;;5095934;28;20047;-70
2023/07/08 04:51:19;;;;;;;7.93;6.32;;;15.30;99.90;;;;;;5129861;27;20404;-70
2023/07/08 04:53:45;;;;;;;9.38;6.03;;;15.30;99.90;;;;;;5095413;28;20447;-70
2023/07/08 04:56:10;;;;;;;10.57;5.90;;;15.30;99.90;;;;;;5146823;27;20055;-70
2023/07/08 04:58:36;;;;;;;7.82;6.07;;;15.40;99.90;;;;;;5112623;27;20037;-70
2023/07/08 05:01:02;;;;;;;9.52;6.10;;;15.40;99.90;;;;;;5112475;28;20443;-70
2023/07/08 05:03:27;;;;;;;7.65;6.53;;;15.40;99.90;;;;;;5112427;28;20042;-70
2023/07/08 05:05:53;;;;;;;7.43;5.97;;;15.50;99.90;;;;;;5095748;28;20399;-70
2023/07/08 05:08:19;;;;;;;10.85;6.75;;;15.50;99.90;;;;;;5112378;28;20036;-70
2023/07/08 05:10:45;;;;;;;7.90;6.30;;;15.50;99.90;;;;;;5095365;28;20073;-70
2023/07/08 05:13:10;;;;;;;12.70;6.75;;;15.60;99.90;;;;;;5129207;27;20035;-70
2023/07/08 05:15:36;;;;;;;8.93;6.43;;;15.60;99.90;;;;;;5095252;28;20044;-70
2023/07/08 05:18:02;;;;;;;9.25;6.45;;;15.60;99.90;;;;;;5146818;27;20248;-71
2023/07/08 05:20:28;;;;;;;6.95;5.72;;;15.70;99.90;;;;;;5146828;27;20043;-70
2023/07/08 05:22:54;;;;;;;8.63;5.68;;;15.70;99.90;;;;;;5095124;28;20039;-70
2023/07/08 05:25:20;;;;;;;9.27;6.40;;;15.80;99.90;;;;;;5113349;27;20090;-70
2023/07/08 05:27:47;;;;;;;7.57;6.05;;;15.80;99.90;;;;;;5094983;28;20050;-70
2023/07/08 05:30:16;;;;;;;7.18;5.68;;;15.90;99.90;;;;;;5095204;28;20071;-71
2023/07/08 05:32:41;;;;;;;10.63;6.68;;;15.90;99.90;;;;;;5146185;27;20073;-71
2023/07/08 05:35:08;;;;;;;7.78;6.10;;;16.00;99.90;;;;;;5094756;28;20132;-70
2023/07/08 05:37:33;;;;;;;7.88;5.80;;;16.10;99.90;;;;;;5128834;27;20050;-70
2023/07/08 05:40:02;;;;;;;7.32;5.72;;;16.10;99.90;;;;;;5094528;28;20032;-71
2023/07/08 05:42:28;;;;;;;7.38;6.03;;;16.20;99.90;;;;;;5129400;27;20074;-70
2023/07/08 05:44:54;;;;;;;8.45;6.10;;;16.30;99.90;;;;;;5128832;27;20135;-70
2023/07/08 05:47:21;;;;;;;7.00;6.03;;;16.30;99.90;;;;;;5112007;27;20046;-70
2023/07/08 05:49:47;;;;;;;7.60;6.40;;;16.40;99.90;;;;;;5094701;28;20036;-70
2023/07/08 05:52:13;;;;;;;10.00;6.28;;;16.50;99.90;;;;;;5146123;27;20132;-70
2023/07/08 05:54:40;;;;;;;7.43;6.22;;;16.60;99.90;;;;;;5077397;28;20529;-70
2023/07/08 05:57:08;;;;;;;6.82;6.13;;;16.70;99.90;;;;;;5078049;28;20040;-70
2023/07/08 05:59:35;;;;;;;10.63;5.95;;;16.70;99.90;;;;;;5111094;28;20484;-70
2023/07/08 06:02:02;;;;;;;9.98;6.38;;;16.80;99.90;;;;;;5128657;27;20036;-70
2023/07/08 06:04:27;;;;;;;9.48;5.95;;;16.90;99.90;;;;;;5145824;27;20032;-70
2023/07/08 06:06:53;;;;;;;8.07;5.88;;;17.00;99.90;;;;;;5111451;28;20450;-70
2023/07/08 06:09:19;;;;;;;13.20;6.10;;;17.10;99.90;;;;;;5145815;27;20409;-71
2023/07/08 06:11:45;;;;;;;8.07;6.00;;;17.20;99.90;;;;;;5111312;28;20400;-71
2023/07/08 06:14:10;;;;;;;10.30;5.78;;;17.30;99.90;;;;;;5145650;27;20050;-70
2023/07/08 06:16:36;;;;;;;9.07;6.00;;;17.40;99.90;;;;;;5145403;27;20070;-70
2023/07/08 06:19:02;;;;;;;9.05;5.90;;;17.50;99.90;;;;;;5076995;28;20047;-70
2023/07/08 06:21:28;;;;;;;9.43;5.43;;;17.60;99.90;;;;;;5094035;28;20059;-70
2023/07/08 06:23:53;;;;;;;9.70;5.80;;;17.70;99.90;;;;;;5145120;27;20492;-70
2023/07/08 06:26:19;;;;;;;8.68;5.82;;;17.70;99.90;;;;;;5128208;27;20100;-70
2023/07/08 06:28:45;;;;;;;9.60;5.80;;;17.80;99.90;;;;;;5144784;27;20500;-71
2023/07/08 06:31:10;;;;;;;7.97;5.40;;;18.00;99.90;;;;;;5127853;27;20031;-70
2023/07/08 06:33:36;;;;;;;7.82;5.78;;;18.10;99.90;;;;;;5110520;27;20047;-70
2023/07/08 06:36:02;;;;;;;8.40;5.72;;;18.20;99.90;;;;;;5110888;27;20136;-71
2023/07/08 06:38:28;;;;;;;9.75;6.40;;;18.30;99.90;;;;;;5093785;28;20047;-70
2023/07/08 06:40:53;;;;;;;8.30;5.90;;;18.40;99.90;;;;;;5093522;28;20416;-71
2023/07/08 06:43:19;;;;;;;8.05;5.57;;;18.50;99.90;;;;;;5144919;27;20044;-70
2023/07/08 06:45:45;;;;;;;6.65;5.47;;;18.60;99.90;;;;;;5144894;27;20100;-70
2023/07/08 06:48:11;;;;;;;9.23;5.57;;;18.70;99.90;;;;;;5144916;27;20058;-71
2023/07/08 06:50:38;;;;;;;8.32;5.32;;;18.90;99.90;;;;;;5092723;28;20040;-71
2023/07/08 06:53:04;;;;;;;8.90;6.25;;;18.90;99.90;;;;;;5145096;27;20050;-70
2023/07/08 06:55:30;;;;;;;11.05;6.03;;;19.10;99.90;;;;;;5110065;27;20047;-70
2023/07/08 06:57:55;;;;;;;9.65;5.07;;;19.20;99.90;;;;;;5093513;28;20471;-71
2023/07/08 07:00:21;;;;;;;9.02;5.47;;;19.30;99.90;;;;;;5127388;27;20503;-71
2023/07/08 07:02:47;;;;;;;10.18;5.93;;;19.40;99.90;;;;;;5144634;27;20043;-71
2023/07/08 07:05:13;;;;;;;9.95;5.82;;;19.60;99.90;;;;;;5092926;28;20058;-71
2023/07/08 07:07:39;;;;;;;10.20;6.38;;;19.70;99.90;;;;;;5145020;27;20092;-71
2023/07/08 07:10:07;;;;;;;12.52;5.75;;;19.90;99.90;;;;;;5110065;28;20401;-71
2023/07/08 07:12:34;;;;;;;11.75;5.90;;;20.00;99.90;;;;;;5144658;27;20051;-71
2023/07/08 07:15:00;;;;;;;8.75;6.78;;;20.10;99.90;;;;;;5144246;27;20088;-71
2023/07/08 07:17:26;;;;;;;13.43;6.72;;;20.30;99.90;;;;;;5093115;28;20040;-71
2023/07/08 07:19:55;;;;;;;8.52;6.63;;;20.40;99.90;;;;;;5127223;27;20050;-71
2023/07/08 07:22:21;;;;;;;9.88;5.88;;;20.60;99.90;;;;;;5127403;27;20057;-71
2023/07/08 07:24:48;;;;;;;9.48;5.80;;;20.70;99.90;;;;;;5092793;28;20039;-71
2023/07/08 07:27:14;;;;;;;8.65;5.40;;;20.90;99.90;;;;;;5127126;27;20035;-71
2023/07/08 07:29:46;;;;;;;9.35;4.68;;;21.00;99.90;;;;;;5109454;28;20049;-72
2023/07/08 07:32:12;;;;;;;7.18;5.00;;;21.10;99.90;;;;;;5144059;27;20084;-71
2023/07/08 07:34:39;;;;;;;7.82;4.90;;;21.20;99.90;;;;;;5092555;28;20043;-71
2023/07/08 07:37:15;;;;;;;9.65;5.05;;;21.40;99.90;;;;;;5144132;27;20036;-71
2023/07/08 07:39:41;;;;;;;8.93;4.40;;;21.60;99.90;;;;;;5143824;27;20054;-71
2023/07/08 07:42:08;;;;;;;6.65;4.75;;;21.70;99.90;;;;;;5092729;28;20039;-72
2023/07/08 07:44:33;;;;;;;9.02;4.97;;;21.90;99.90;;;;;;5144063;27;20093;-72
2023/07/08 07:46:59;;;;;;;7.57;4.43;;;22.00;99.90;;;;;;5127157;27;20561;-71
2023/07/08 07:49:25;;;;;;;8.18;4.75;;;22.10;99.90;;;;;;5075773;28;20511;-71
2023/07/08 07:51:51;;;;;;;5.82;5.15;;;22.20;99.90;;;;;;5143965;27;20039;-72
2023/07/08 07:54:17;;;;;;;7.18;4.05;;;22.40;99.90;;;;;;5143782;27;20654;-71
2023/07/08 07:56:42;;;;;;;5.32;3.92;;;22.50;99.90;;;;;;5126304;27;20083;-71
2023/07/08 07:59:08;;;;;;;4.93;4.10;;;22.60;99.90;;;;;;5075705;28;20036;-71
2023/07/08 08:01:34;;;;;;;4.57;3.80;;;22.80;99.90;;;;;;5126436;27;20576;-71
2023/07/08 08:03:59;;;;;;;5.32;3.83;;;22.90;99.90;;;;;;5095465;28;20031;-71
2023/07/08 08:06:25;;;;;;;10.90;4.40;;;23.00;99.90;;;;;;5148062;27;20143;-71
2023/07/08 08:08:51;;;;;;;7.43;3.83;;;23.10;99.90;;;;;;5097062;28;20511;-71
2023/07/08 08:11:16;;;;;;;4.72;3.85;;;23.20;99.90;;;;;;5147858;27;20252;-71
2023/07/08 08:13:42;;;;;;;3.72;3.38;;;23.30;99.90;;;;;;5147745;27;20047;-71
2023/07/08 08:16:08;;;;;;;4.28;3.53;;;23.50;99.90;;;;;;5147659;27;20047;-72
2023/07/08 08:18:34;;;;;;;6.90;4.13;;;23.60;99.90;;;;;;5096305;28;20416;-72
2023/07/08 08:21:00;;;;;;;7.30;3.67;;;23.80;99.90;;;;;;5096409;28;20172;-72
2023/07/08 08:23:26;;;;;;;6.18;3.58;;;24.00;99.90;;;;;;5147557;27;20097;-72
2023/07/08 08:25:52;;;;;;;5.97;4.05;;;24.10;99.90;;;;;;5096184;28;20105;-72
2023/07/08 08:28:18;;;;;;;7.25;3.50;;;24.30;99.90;;;;;;5095792;28;20047;-72
2023/07/08 08:30:48;;;;;;;5.35;3.65;;;24.40;99.90;;;;;;5147630;27;20046;-72
2023/07/08 08:33:14;;;;;;;6.80;3.60;;;24.50;99.90;;;;;;5113354;28;20058;-72
2023/07/08 08:35:39;;;;;;;6.63;3.80;;;24.60;99.80;;;;;;5112911;28;20477;-72
2023/07/08 08:38:05;;;;;;;5.25;3.13;;;24.70;99.70;;;;;;5096152;28;20036;-72
2023/07/08 08:40:31;;;;;;;3.90;3.35;;;24.80;98.80;;;;;;5113030;28;20058;-72
2023/07/08 08:42:59;;;;;;;6.35;3.65;;;24.80;98.60;;;;;;5096214;28;20582;-72
2023/07/08 08:45:27;;;;;;;3.50;3.20;;;24.90;98.40;;;;;;5147168;27;20044;-72
2023/07/08 08:47:59;;;;;;;5.60;3.47;;;24.90;98.20;;;;;;5147127;27;20043;-71
2023/07/08 08:50:31;;;;;;;6.20;3.60;;;25.10;98.10;;;;;;5147094;27;20508;-72
2023/07/08 08:53:00;;;;;;;7.65;4.20;;;25.20;98.50;;;;;;5146880;27;20051;-72
2023/07/08 08:55:26;;;;;;;5.70;3.83;;;25.40;98.20;;;;;;5146802;27;20063;-71
2023/07/08 08:58:22;;;;;;;6.30;3.58;;;25.50;98.10;;;;;;5129654;27;20397;-72
2023/07/08 09:00:56;;;;;;;6.50;3.78;;;25.60;97.40;;;;;;5112508;28;20637;-72
2023/07/08 09:03:51;;;;;;;4.35;3.15;;;25.70;97.80;;;;;;5146963;27;20035;-72
2023/07/08 09:06:22;;;;;;;4.43;3.35;;;26.00;97.10;;;;;;5119029;27;20148;-71
2023/07/08 09:08:50;;;;;;;5.20;3.55;;;25.90;96.50;;;;;;5095361;28;20050;-72
2023/07/08 09:11:27;;;;;;;4.82;3.50;;;26.00;96.50;;;;;;5146583;27;20048;-72
2023/07/08 09:13:54;;;;;;;4.07;3.53;;;26.10;96.60;;;;;;5094784;28;20127;-72
2023/07/08 09:16:53;;;;;;;5.18;3.80;;;26.20;96.90;;;;;;5111792;28;20044;-72
2023/07/08 09:19:32;;;;;;;4.35;3.78;;;26.40;96.30;;;;;;5146520;27;20036;-72
2023/07/08 09:22:36;;;;;;;5.18;3.65;;;26.60;95.60;;;;;;5095046;28;20036;-72
2023/07/08 09:25:30;;;;;;;5.35;3.67;;;26.60;95.10;;;;;;5108682;28;20047;-72
2023/07/08 09:27:56;;;;;;;5.25;3.75;;;26.80;95.80;;;;;;5111644;28;20541;-73
2023/07/08 09:30:24;;;;;;;6.10;3.70;;;26.90;95.80;;;;;;5078104;28;20039;-72
2023/07/08 09:32:50;;;;;;;6.22;3.95;;;27.00;96.00;;;;;;5095292;28;20539;-73
2023/07/08 09:35:23;;;;;;;6.30;3.35;;;27.20;96.00;;;;;;5094706;28;20039;-73
2023/07/08 09:37:48;;;;;;;;;;;27.30;95.60;;;;;;5146597;27;20040;-73
2023/07/08 09:40:31;;;;;;;5.20;3.60;;;27.40;94.50;;;;;;5095118;28;20227;-73
2023/07/08 09:43:08;;;;;;;;;;;27.50;94.10;;;;;;5146567;27;20074;-73
2023/07/08 09:45:42;;;;;;;4.13;3.30;;;27.60;92.50;;;;;;5111593;28;19919;-73
2023/07/08 09:48:27;;;;;;;4.50;3.30;;;27.70;93.60;;;;;;5146009;27;20047;-73
2023/07/08 09:50:55;;;;;;;4.15;3.65;;;27.80;93.70;;;;;;5146118;27;20047;-73
2023/07/08 09:53:21;;;;;;;4.47;3.42;;;27.90;94.10;;;;;;5095181;28;20461;-73
2023/07/08 09:55:49;;;;;;;5.07;3.85;;;28.00;93.90;;;;;;5128227;27;20113;-72
2023/07/08 09:58:40;;;;;;;6.40;3.33;;;28.00;93.30;;;;;;5145353;27;20083;-72
2023/07/08 10:01:29;;;;;;;5.10;3.47;;;28.20;93.20;;;;;;5094624;28;20140;-73
2023/07/08 10:04:03;;;;;;;6.65;3.70;;;28.30;93.00;;;;;;5094402;28;20043;-72
2023/07/08 10:06:35;;;;;;;4.90;3.40;;;28.50;92.80;;;;;;5145694;27;20501;-72
2023/07/08 10:09:13;;;;;;;4.07;3.30;;;28.60;92.60;;;;;;5145563;27;20035;-73
2023/07/08 10:11:44;;;;;;;5.43;3.67;;;28.70;92.60;;;;;;5145811;27;20351;-73
2023/07/08 10:14:22;;;;;;;5.50;3.22;;;28.80;92.50;;;;;;5094119;28;20043;-72
2023/07/08 10:16:47;;;;;;;6.82;3.50;;;28.90;91.80;;;;;;5145231;27;20044;-72
2023/07/08 10:19:17;;;;;;;4.32;3.83;;;29.00;91.60;;;;;;5111028;28;20046;-72
2023/07/08 10:22:22;;;;;;;6.72;4.00;;;29.00;91.00;;;;;;5094159;28;20039;-72
2023/07/08 10:24:57;;;;;;;7.18;3.35;;;29.10;91.00;;;;;;5144971;27;20043;-72
2023/07/08 10:27:41;;;;;;;6.57;4.20;;;29.20;91.10;;;;;;5093293;28;20044;-72
2023/07/08 10:30:11;;;;;;;5.38;3.35;;;29.30;90.90;;;;;;5110652;28;20035;-72
2023/07/08 10:33:08;;;;;;;3.83;3.25;;;29.40;90.90;;;;;;5145170;27;20039;-73
2023/07/08 10:35:36;;;;;;;4.88;3.20;;;29.60;90.60;;;;;;5145413;27;20503;-72
2023/07/08 10:38:10;;;;;;;3.80;3.33;;;29.70;90.70;;;;;;5093635;28;20044;-72
2023/07/08 10:40:59;;;;;;;4.88;3.47;;;29.90;90.70;;;;;;5145002;27;20039;-72
2023/07/08 10:43:30;;;;;;;4.57;3.50;;;30.00;89.70;;;;;;5093445;28;20036;-73
2023/07/08 10:46:08;;;;;;;6.53;3.70;;;30.10;85.70;;;;;;5093562;28;20047;-72
2023/07/08 10:49:09;;;;;;;9.02;3.88;;;30.10;88.20;;;;;;5093239;28;20126;-73
2023/07/08 10:51:46;;;;;;;4.13;3.20;;;30.20;87.70;;;;;;5110477;28;20046;-72
2023/07/08 10:54:24;;;;;;;3.97;3.38;;;30.30;86.60;;;;;;5110389;28;20039;-72
2023/07/08 10:57:01;;;;;;;8.30;3.67;;;30.30;86.40;;;;;;5144868;27;20192;-72
2023/07/08 10:59:42;;;;;;;5.43;3.67;;;30.40;86.10;;;;;;5093671;28;20270;-72
2023/07/08 11:02:39;;;;;;;4.17;3.17;;;30.60;87.20;;;;;;5145143;27;20520;-73
2023/07/08 11:05:17;;;;;;;5.25;3.50;;;30.80;84.60;;;;;;5145048;27;20508;-72
2023/07/08 11:07:49;;;;;;;4.20;3.30;;;30.80;84.20;;;;;;5145481;27;20047;-73
2023/07/08 11:10:21;;;;;;;4.05;3.20;;;31.00;85.50;;;;;;5094152;28;20560;-72
2023/07/08 11:12:55;;;;;;;4.75;3.40;;;31.00;84.20;;;;;;5145175;27;20044;-72
2023/07/08 11:15:30;;;;;;;5.90;3.40;;;31.00;84.80;;;;;;5144897;27;20066;-71
2023/07/08 11:18:07;;;;;;;4.78;3.60;;;31.20;83.90;;;;;;5093043;28;20027;-71
2023/07/08 11:20:51;;;;;;;5.22;3.45;;;31.20;84.30;;;;;;5144456;27;20039;-71
2023/07/08 11:23:26;;;;;;;4.28;3.20;;;31.40;83.00;;;;;;5092797;28;20036;-72
2023/07/08 11:26:01;;;;;;;3.95;3.20;;;31.50;81.60;;;;;;5144242;27;20044;-73
2023/07/08 11:28:27;;;;;;;6.38;3.55;;;31.40;82.40;;;;;;5144016;27;20043;-72
2023/07/08 11:30:53;;;;;;;4.82;3.65;;;31.40;81.70;;;;;;5092838;28;20488;-72
2023/07/08 11:33:24;;;;;;;4.25;3.25;;;31.50;81.50;;;;;;5092659;28;20039;-72
2023/07/08 11:35:55;;;;;;;4.00;3.03;;;31.60;81.80;;;;;;5143883;27;20044;-72
2023/07/08 11:38:21;;;;;;;4.65;3.50;;;31.70;80.30;;;;;;5144380;27;20039;-72
2023/07/08 11:40:54;;;;;;;6.28;3.55;;;31.70;79.30;;;;;;5143861;27;20393;-72
2023/07/08 11:43:21;;;;;;;4.05;3.53;;;31.70;78.90;;;;;;5092724;28;20039;-72
2023/07/08 11:45:50;;;;;;;4.47;3.63;;;31.80;79.50;;;;;;5143874;27;20043;-72
2023/07/08 11:48:30;;;;;;;4.70;3.42;;;31.90;79.20;;;;;;5144204;27;20036;-72
2023/07/08 11:50:57;;;;;;;5.03;3.92;;;32.00;78.00;;;;;;5143893;27;20044;-72
2023/07/08 11:53:29;;;;;;;9.90;4.47;;;32.00;78.20;;;;;;5092748;28;20604;-72
2023/07/08 11:56:02;;;;;;;5.22;3.70;;;32.00;77.10;;;;;;5143524;27;20096;-72
2023/07/08 11:58:47;;;;;;;6.82;3.90;;;32.10;77.60;;;;;;5092219;28;20046;-72
2023/07/08 12:01:12;;;;;;;4.97;3.60;;;32.20;77.20;;;;;;5143869;27;20680;-72
2023/07/08 12:03:47;;;;;;;9.13;4.78;;;32.30;77.80;;;;;;5092447;28;20067;-72
2023/07/08 12:06:27;;;;;;;7.60;4.60;;;32.30;76.30;;;;;;5143748;27;20138;-72
2023/07/08 12:08:55;;;;;;;11.93;4.38;;;32.40;75.90;;;;;;5143723;27;20047;-72
2023/07/08 12:11:28;;;;;;;5.93;4.30;;;32.40;75.40;;;;;;5092477;28;20050;-72
2023/07/08 12:13:59;;;;;;;4.32;3.58;;;32.50;74.60;;;;;;5143999;27;20101;-72
2023/07/08 12:16:27;;;;;;;5.95;3.78;;;32.50;73.90;;;;;;5143385;27;20104;-72
2023/07/08 12:18:54;;;;;;;5.63;4.30;;;32.60;74.40;;;;;;5143615;27;20043;-73
2023/07/08 12:21:23;;;;;;;6.10;4.22;;;32.60;73.70;;;;;;5075598;28;20039;-73
2023/07/08 12:23:49;;;;;;;5.35;4.38;;;32.70;74.40;;;;;;5109126;28;20038;-72
2023/07/08 12:26:15;;;;;;;6.55;4.95;;;32.60;73.40;;;;;;5143502;27;20035;-72
2023/07/08 12:28:43;;;;;;;6.55;4.55;;;32.70;74.10;;;;;;5143439;27;20039;-72
2023/07/08 12:31:22;;;;;;;6.10;4.40;;;32.70;73.90;;;;;;5143498;27;20054;-72
2023/07/08 12:33:48;;;;;;;9.02;4.10;;;32.80;73.90;;;;;;5143738;27;20055;-72
2023/07/08 12:36:20;;;;;;;5.70;4.18;;;32.90;73.40;;;;;;5092066;28;20126;-73
2023/07/08 12:38:47;;;;;;;6.70;4.35;;;32.80;72.80;;;;;;5109313;28;20039;-72
2023/07/08 12:41:34;;;;;;;6.25;4.07;;;32.90;73.90;;;;;;5143245;27;20068;-72
2023/07/08 12:44:01;;;;;;;5.38;4.03;;;32.80;73.00;;;;;;5143382;27;20492;-72
2023/07/08 12:46:28;;;;;;;5.72;4.13;;;32.90;72.50;;;;;;5075199;28;20680;-72
2023/07/08 12:48:54;;;;;;;6.75;4.10;;;32.90;72.90;;;;;;5144348;27;20086;-72
2023/07/08 12:51:26;;;;;;;4.65;3.80;;;32.90;72.40;;;;;;5112617;28;20075;-72
2023/07/08 12:53:53;;;;;;;5.15;4.13;;;33.00;72.50;;;;;;5147159;27;20047;-72
2023/07/08 12:56:22;;;;;;;6.18;4.78;;;33.00;72.10;;;;;;5146751;27;20077;-72